You are listening to:
KLAX Final App (North/South) - Los Angeles, California, United States

KLAX 262153Z 27012KT 10SM CLR 23/17 A2988 RMK AO2 SLP116 T02280167

If stream doesn't start automatically press the play button
If stream stops then reload player then press play